Barcelona, Spain
Current Conditions -  °F | °C
As of 5:00 PM on Wednesday 26 Nov 2014 (Local Time) from LEBL Reporting Station
Few Clouds Few Clouds  
Wind Chill: 63°   Ceiling: Unl
Heat Index: 63°   Visibility: 6mi
Dew Point: 57°   Wind: 1mph
Humidity: 82%   Direction: NA
Pressure: 29.8"   Gusts: NA
Location:  41.39°N, 2.17°E
Report Text: LEBL 261600Z VRB01KT 9999 FEW015 17/14 Q1009 NOSIG
Loading
Personal Weather Stations






























Interactive Weather Map New forecast layout! Learn more

10-Day Weather Forecast

Advertisements
Track Severe Weather on mobile